Airfield :
LOGIN :

Register | Disclaimer

   EN    FR    IT 

 










Legend :    VFR   Marginal VFR   IFR   Intensive IFR   Very Intensive IFR
Visi :
Ceiling :
>= 8 km
>= 3000ft
5 to 8 km
1000 to 3000 ft
1500m to 5 km
500 to 1000 ft
800 to 1500m
200 to 500 ft
< 800m
< 200 ft
Symbols :   Thunderstorms  Fog  Heavy snow  Heavy precipitations  Wind > 20 kt
SIGMETs :     Misc.  Thunderstorms  Icing  Turbulence  Mountain Waves  Volcanic Ashes






- Airport Elevation : 172 ft
- IATA code : ODS


UKOO - Odesa

CURRENT METAR :
  • 121030Z 10004MPS 9999 BKN002 OVC005 14/14 Q1022 R16/090060 NOSIG

EXPIRED METARs :
  • 121017Z 10005MPS 9999 BKN002 OVC005 13/13 Q1022 R16/090060 NOSIG
  • 121000Z 12004MPS 080V150 4800 -DZ BR BKN002 OVC004 13/13 Q1022 R16/090060 NOSIG
  • 120939Z 10004MPS 060V130 1300 0800S R16/P2000N PRFG BKN002 OVC004 13/13 Q1022 R16/090060 TEMPO 0300 FG
  • 120930Z 10005MPS 5000 BR BKN002 OVC004 13/13 Q1022 R16/090060 TEMPO 0300 FG
  • 120900Z 09004MPS 0700 0550S R16/P2000N PRFG VV002 13/13 Q1023 R16/190056 TEMPO 0300 FG
  • 120847Z 09004MPS 050V110 1400 1200SE R16/P2000N BR BKN002 OVC004 13/13 Q1023 R16/190056 TEMPO 0300 FG
  • 120830Z 10005MPS 2700 BR BKN002 OVC003 13/13 Q1023 R16/190056 TEMPO 0300 FG
  • 120818Z 09005MPS 4800 0900S R16/P2000N PRFG OVC001 13/13 Q1023 R16/190056 TEMPO 0300 FG
  • 120808Z 09005MPS 060V130 0650 0600S R16/P2000N PRFG OVC001 13/13 Q1023 R16/190056 TEMPO 0300 FG
  • 120748Z 10004MPS 060V130 0700 0500S R16/P2000N PRFG VV001 13/13 Q1023 R16/190056 TEMPO 0300 FG

TAF TAF UKOO
Valid from the 12 at 06:00 until the 13 at 06:00 UTC


120503Z 1206/1306 11003MPS 0300 FG VV002
TEMPO 1206/1210 2100 BR BKN004
BECMG 1210/1211 2100 BR BKN007
PROB40
TEMPO 1215/1303 0300 FG VV002
BECMG 1303/1304 11007G14MPS



MET'MAP, your aeronautical weather chart ! - Copyright ORBIFLY December 2007 - Disclaimer

ORBIFLY MET'MAP TEAM :

Programming & Development : Alexandra Zaïnal
Concept & Development : Baudouin d'Aumeries
Co-Development & Prog : Marc-Olivier Méhu
Technical & hardware support : Manuel Goepfert

Contact : metmap@orbifly.com




SOURCES & CREDITS :

   NOAA